sensor_id;sensor_type;location;lat;lon;timestamp;P1;durP1;ratioP1;P2;durP2;ratioP2
16957;SDS011;8595;52.542;11.974;2023-08-21T00:01:03;10.40;;;6.40;;
16957;SDS011;8595;52.542;11.974;2023-08-21T00:03:30;8.63;;;6.30;;
16957;SDS011;8595;52.542;11.974;2023-08-21T00:05:58;7.95;;;5.95;;
16957;SDS011;8595;52.542;11.974;2023-08-21T00:08:25;9.80;;;6.47;;
16957;SDS011;8595;52.542;11.974;2023-08-21T00:10:52;8.82;;;6.95;;
16957;SDS011;8595;52.542;11.974;2023-08-21T00:13:20;7.63;;;6.10;;
16957;SDS011;8595;52.542;11.974;2023-08-21T00:15:47;8.15;;;6.28;;
16957;SDS011;8595;52.542;11.974;2023-08-21T00:18:14;8.82;;;6.45;;
16957;SDS011;8595;52.542;11.974;2023-08-21T00:20:40;7.25;;;6.35;;
16957;SDS011;8595;52.542;11.974;2023-08-21T00:23:08;7.22;;;6.35;;
16957;SDS011;8595;52.542;11.974;2023-08-21T00:25:35;8.57;;;6.68;;
16957;SDS011;8595;52.542;11.974;2023-08-21T00:28:03;9.32;;;6.00;;
16957;SDS011;8595;52.542;11.974;2023-08-21T00:30:31;7.88;;;5.90;;
16957;SDS011;8595;52.542;11.974;2023-08-21T00:32:58;8.32;;;6.32;;
16957;SDS011;8595;52.542;11.974;2023-08-21T00:35:24;9.35;;;6.90;;
16957;SDS011;8595;52.542;11.974;2023-08-21T00:37:52;10.70;;;6.55;;
16957;SDS011;8595;52.542;11.974;2023-08-21T00:40:19;7.47;;;6.78;;
16957;SDS011;8595;52.542;11.974;2023-08-21T00:42:46;9.95;;;6.70;;
16957;SDS011;8595;52.542;11.974;2023-08-21T00:45:13;9.40;;;6.40;;
16957;SDS011;8595;52.542;11.974;2023-08-21T00:47:41;7.13;;;6.03;;
16957;SDS011;8595;52.542;11.974;2023-08-21T00:50:09;11.07;;;7.18;;
16957;SDS011;8595;52.542;11.974;2023-08-21T00:52:37;12.25;;;6.80;;
16957;SDS011;8595;52.542;11.974;2023-08-21T00:55:05;8.82;;;6.30;;
16957;SDS011;8595;52.542;11.974;2023-08-21T00:57:32;7.95;;;6.63;;
16957;SDS011;8595;52.542;11.974;2023-08-21T00:59:59;7.22;;;6.53;;
16957;SDS011;8595;52.542;11.974;2023-08-21T01:02:27;8.02;;;7.18;;
16957;SDS011;8595;52.542;11.974;2023-08-21T01:04:55;9.05;;;6.80;;
16957;SDS011;8595;52.542;11.974;2023-08-21T01:07:22;11.93;;;7.00;;
16957;SDS011;8595;52.542;11.974;2023-08-21T01:09:49;9.90;;;8.00;;
16957;SDS011;8595;52.542;11.974;2023-08-21T01:12:22;10.68;;;8.00;;
16957;SDS011;8595;52.542;11.974;2023-08-21T01:14:58;9.88;;;8.73;;
16957;SDS011;8595;52.542;11.974;2023-08-21T01:17:26;9.40;;;7.97;;
16957;SDS011;8595;52.542;11.974;2023-08-21T01:19:56;11.90;;;8.07;;
16957;SDS011;8595;52.542;11.974;2023-08-21T01:22:25;14.98;;;7.97;;
16957;SDS011;8595;52.542;11.974;2023-08-21T01:24:54;8.48;;;7.50;;
16957;SDS011;8595;52.542;11.974;2023-08-21T01:27:21;8.60;;;7.50;;
16957;SDS011;8595;52.542;11.974;2023-08-21T01:29:49;8.60;;;7.47;;
16957;SDS011;8595;52.542;11.974;2023-08-21T01:32:18;9.30;;;7.47;;
16957;SDS011;8595;52.542;11.974;2023-08-21T01:34:49;9.32;;;7.32;;
16957;SDS011;8595;52.542;11.974;2023-08-21T01:37:18;12.05;;;7.18;;
16957;SDS011;8595;52.542;11.974;2023-08-21T01:39:45;11.40;;;8.18;;
16957;SDS011;8595;52.542;11.974;2023-08-21T01:42:14;12.65;;;8.00;;
16957;SDS011;8595;52.542;11.974;2023-08-21T01:44:41;8.90;;;7.13;;
16957;SDS011;8595;52.542;11.974;2023-08-21T01:47:11;8.40;;;6.85;;
16957;SDS011;8595;52.542;11.974;2023-08-21T01:49:37;8.55;;;7.38;;
16957;SDS011;8595;52.542;11.974;2023-08-21T01:52:04;12.27;;;7.85;;
16957;SDS011;8595;52.542;11.974;2023-08-21T01:54:31;18.40;;;8.90;;
16957;SDS011;8595;52.542;11.974;2023-08-21T01:56:58;12.65;;;8.50;;
16957;SDS011;8595;52.542;11.974;2023-08-21T01:59:26;9.35;;;8.02;;
16957;SDS011;8595;52.542;11.974;2023-08-21T02:01:53;11.70;;;8.30;;
16957;SDS011;8595;52.542;11.974;2023-08-21T02:04:20;10.57;;;7.78;;
16957;SDS011;8595;52.542;11.974;2023-08-21T02:06:46;9.43;;;7.43;;
16957;SDS011;8595;52.542;11.974;2023-08-21T02:09:13;11.77;;;7.72;;
16957;SDS011;8595;52.542;11.974;2023-08-21T02:11:40;16.25;;;8.63;;
16957;SDS011;8595;52.542;11.974;2023-08-21T02:14:08;11.05;;;8.50;;
16957;SDS011;8595;52.542;11.974;2023-08-21T02:16:36;10.23;;;8.18;;
16957;SDS011;8595;52.542;11.974;2023-08-21T02:19:03;13.23;;;9.02;;
16957;SDS011;8595;52.542;11.974;2023-08-21T02:21:30;10.13;;;8.40;;
16957;SDS011;8595;52.542;11.974;2023-08-21T02:23:57;12.18;;;8.43;;
16957;SDS011;8595;52.542;11.974;2023-08-21T02:26:24;9.77;;;8.70;;
16957;SDS011;8595;52.542;11.974;2023-08-21T02:28:50;10.07;;;8.27;;
16957;SDS011;8595;52.542;11.974;2023-08-21T02:31:17;12.52;;;8.77;;
16957;SDS011;8595;52.542;11.974;2023-08-21T02:33:46;20.67;;;8.98;;
16957;SDS011;8595;52.542;11.974;2023-08-21T02:36:15;13.05;;;8.50;;
16957;SDS011;8595;52.542;11.974;2023-08-21T02:38:41;16.05;;;8.38;;
16957;SDS011;8595;52.542;11.974;2023-08-21T02:41:09;13.23;;;8.18;;
16957;SDS011;8595;52.542;11.974;2023-08-21T02:43:36;13.18;;;7.78;;
16957;SDS011;8595;52.542;11.974;2023-08-21T02:46:03;12.88;;;8.07;;
16957;SDS011;8595;52.542;11.974;2023-08-21T02:48:30;10.32;;;7.72;;
16957;SDS011;8595;52.542;11.974;2023-08-21T02:50:58;12.10;;;8.20;;
16957;SDS011;8595;52.542;11.974;2023-08-21T02:53:25;10.88;;;7.75;;
16957;SDS011;8595;52.542;11.974;2023-08-21T02:55:52;9.05;;;7.93;;
16957;SDS011;8595;52.542;11.974;2023-08-21T02:58:18;11.52;;;8.00;;
16957;SDS011;8595;52.542;11.974;2023-08-21T03:00:45;11.50;;;9.38;;
16957;SDS011;8595;52.542;11.974;2023-08-21T03:03:12;12.52;;;8.32;;
16957;SDS011;8595;52.542;11.974;2023-08-21T03:05:39;10.75;;;8.35;;
16957;SDS011;8595;52.542;11.974;2023-08-21T03:08:07;12.10;;;8.38;;
16957;SDS011;8595;52.542;11.974;2023-08-21T03:10:34;10.70;;;8.55;;
16957;SDS011;8595;52.542;11.974;2023-08-21T03:13:02;11.95;;;9.05;;
16957;SDS011;8595;52.542;11.974;2023-08-21T03:15:29;10.63;;;8.07;;
16957;SDS011;8595;52.542;11.974;2023-08-21T03:17:56;10.95;;;8.93;;
16957;SDS011;8595;52.542;11.974;2023-08-21T03:20:22;14.40;;;10.68;;
16957;SDS011;8595;52.542;11.974;2023-08-21T03:22:51;12.27;;;9.50;;
16957;SDS011;8595;52.542;11.974;2023-08-21T03:25:19;11.02;;;9.60;;
16957;SDS011;8595;52.542;11.974;2023-08-21T03:27:46;9.82;;;8.82;;
16957;SDS011;8595;52.542;11.974;2023-08-21T03:30:14;10.65;;;9.55;;
16957;SDS011;8595;52.542;11.974;2023-08-21T03:32:41;13.63;;;9.15;;
16957;SDS011;8595;52.542;11.974;2023-08-21T03:35:08;13.23;;;8.43;;
16957;SDS011;8595;52.542;11.974;2023-08-21T03:37:35;9.15;;;8.23;;
16957;SDS011;8595;52.542;11.974;2023-08-21T03:41:05;10.90;;;8.88;;
16957;SDS011;8595;52.542;11.974;2023-08-21T03:43:12;12.52;;;8.52;;
16957;SDS011;8595;52.542;11.974;2023-08-21T03:45:39;11.68;;;8.80;;
16957;SDS011;8595;52.542;11.974;2023-08-21T03:48:06;15.15;;;9.52;;
16957;SDS011;8595;52.542;11.974;2023-08-21T03:50:33;10.70;;;8.65;;
16957;SDS011;8595;52.542;11.974;2023-08-21T03:53:00;13.25;;;9.00;;
16957;SDS011;8595;52.542;11.974;2023-08-21T03:55:26;12.57;;;8.55;;
16957;SDS011;8595;52.542;11.974;2023-08-21T03:57:53;12.55;;;8.93;;
16957;SDS011;8595;52.542;11.974;2023-08-21T04:00:21;13.15;;;9.40;;
16957;SDS011;8595;52.542;11.974;2023-08-21T04:02:48;12.13;;;9.68;;
16957;SDS011;8595;52.542;11.974;2023-08-21T04:05:15;11.88;;;8.50;;
16957;SDS011;8595;52.542;11.974;2023-08-21T04:07:42;11.48;;;9.02;;
16957;SDS011;8595;52.542;11.974;2023-08-21T04:10:09;10.02;;;8.73;;
16957;SDS011;8595;52.542;11.974;2023-08-21T04:12:36;10.70;;;8.30;;
16957;SDS011;8595;52.542;11.974;2023-08-21T04:15:03;13.98;;;9.07;;
16957;SDS011;8595;52.542;11.974;2023-08-21T04:17:32;11.95;;;7.80;;
16957;SDS011;8595;52.542;11.974;2023-08-21T04:19:59;14.68;;;8.38;;
16957;SDS011;8595;52.542;11.974;2023-08-21T04:22:26;13.77;;;9.02;;
16957;SDS011;8595;52.542;11.974;2023-08-21T04:24:52;11.90;;;9.50;;
16957;SDS011;8595;52.542;11.974;2023-08-21T04:27:19;11.30;;;8.23;;
16957;SDS011;8595;52.542;11.974;2023-08-21T04:29:47;9.68;;;8.60;;
16957;SDS011;8595;52.542;11.974;2023-08-21T04:32:14;11.52;;;9.52;;
16957;SDS011;8595;52.542;11.974;2023-08-21T04:34:42;13.90;;;9.57;;
16957;SDS011;8595;52.542;11.974;2023-08-21T04:37:09;14.05;;;9.05;;
16957;SDS011;8595;52.542;11.974;2023-08-21T04:39:36;14.45;;;10.20;;
16957;SDS011;8595;52.542;11.974;2023-08-21T04:42:03;14.80;;;10.50;;
16957;SDS011;8595;52.542;11.974;2023-08-21T04:44:30;11.73;;;10.43;;
16957;SDS011;8595;52.542;11.974;2023-08-21T04:46:56;11.25;;;9.18;;
16957;SDS011;8595;52.542;11.974;2023-08-21T04:49:23;11.45;;;9.65;;
16957;SDS011;8595;52.542;11.974;2023-08-21T04:51:51;14.13;;;10.15;;
16957;SDS011;8595;52.542;11.974;2023-08-21T04:54:18;11.48;;;8.82;;
16957;SDS011;8595;52.542;11.974;2023-08-21T04:56:45;11.55;;;9.10;;
16957;SDS011;8595;52.542;11.974;2023-08-21T04:59:12;12.85;;;9.43;;
16957;SDS011;8595;52.542;11.974;2023-08-21T05:01:39;12.70;;;10.27;;
16957;SDS011;8595;52.542;11.974;2023-08-21T05:04:06;15.00;;;10.20;;
16957;SDS011;8595;52.542;11.974;2023-08-21T05:06:32;10.15;;;9.15;;
16957;SDS011;8595;52.542;11.974;2023-08-21T05:09:01;11.90;;;9.80;;
16957;SDS011;8595;52.542;11.974;2023-08-21T05:11:29;13.20;;;9.85;;
16957;SDS011;8595;52.542;11.974;2023-08-21T05:13:56;13.80;;;9.73;;
16957;SDS011;8595;52.542;11.974;2023-08-21T05:16:23;14.68;;;9.15;;
16957;SDS011;8595;52.542;11.974;2023-08-21T05:18:50;14.75;;;9.27;;
16957;SDS011;8595;52.542;11.974;2023-08-21T05:21:17;10.13;;;9.02;;
16957;SDS011;8595;52.542;11.974;2023-08-21T05:23:45;12.35;;;9.60;;
16957;SDS011;8595;52.542;11.974;2023-08-21T05:26:13;11.63;;;9.65;;
16957;SDS011;8595;52.542;11.974;2023-08-21T05:28:40;15.35;;;8.52;;
16957;SDS011;8595;52.542;11.974;2023-08-21T05:31:07;12.00;;;9.75;;
16957;SDS011;8595;52.542;11.974;2023-08-21T05:33:33;13.27;;;8.57;;
16957;SDS011;8595;52.542;11.974;2023-08-21T05:36:00;10.30;;;9.15;;
16957;SDS011;8595;52.542;11.974;2023-08-21T05:38:27;10.07;;;8.43;;
16957;SDS011;8595;52.542;11.974;2023-08-21T05:40:54;10.88;;;9.57;;
16957;SDS011;8595;52.542;11.974;2023-08-21T05:43:22;9.70;;;8.45;;
16957;SDS011;8595;52.542;11.974;2023-08-21T05:45:49;11.82;;;8.68;;
16957;SDS011;8595;52.542;11.974;2023-08-21T05:48:16;13.48;;;8.63;;
16957;SDS011;8595;52.542;11.974;2023-08-21T05:50:43;11.05;;;7.90;;
16957;SDS011;8595;52.542;11.974;2023-08-21T05:53:09;10.95;;;7.88;;
16957;SDS011;8595;52.542;11.974;2023-08-21T05:55:36;10.05;;;8.95;;
16957;SDS011;8595;52.542;11.974;2023-08-21T05:58:03;10.75;;;8.02;;
16957;SDS011;8595;52.542;11.974;2023-08-21T06:00:32;10.38;;;7.38;;
16957;SDS011;8595;52.542;11.974;2023-08-21T06:03:00;13.10;;;8.90;;
16957;SDS011;8595;52.542;11.974;2023-08-21T06:05:26;9.20;;;7.70;;
16957;SDS011;8595;52.542;11.974;2023-08-21T06:07:53;10.43;;;7.57;;
16957;SDS011;8595;52.542;11.974;2023-08-21T06:10:20;13.50;;;8.15;;
16957;SDS011;8595;52.542;11.974;2023-08-21T06:12:47;13.65;;;8.95;;
16957;SDS011;8595;52.542;11.974;2023-08-21T06:15:15;11.85;;;8.00;;
16957;SDS011;8595;52.542;11.974;2023-08-21T06:17:43;9.40;;;7.05;;
16957;SDS011;8595;52.542;11.974;2023-08-21T06:20:10;8.57;;;7.63;;
16957;SDS011;8595;52.542;11.974;2023-08-21T06:22:39;9.02;;;7.65;;
16957;SDS011;8595;52.542;11.974;2023-08-21T06:25:06;8.48;;;7.43;;
16957;SDS011;8595;52.542;11.974;2023-08-21T06:27:34;12.65;;;7.60;;
16957;SDS011;8595;52.542;11.974;2023-08-21T06:30:01;11.52;;;8.07;;
16957;SDS011;8595;52.542;11.974;2023-08-21T06:32:29;8.10;;;6.95;;
16957;SDS011;8595;52.542;11.974;2023-08-21T06:34:57;14.07;;;7.65;;
16957;SDS011;8595;52.542;11.974;2023-08-21T06:37:24;9.10;;;7.43;;
16957;SDS011;8595;52.542;11.974;2023-08-21T06:39:51;14.60;;;7.78;;
16957;SDS011;8595;52.542;11.974;2023-08-21T06:42:18;16.00;;;8.25;;
16957;SDS011;8595;52.542;11.974;2023-08-21T06:44:45;14.48;;;9.13;;
16957;SDS011;8595;52.542;11.974;2023-08-21T06:47:12;12.10;;;7.95;;
16957;SDS011;8595;52.542;11.974;2023-08-21T06:49:39;19.23;;;7.68;;
16957;SDS011;8595;52.542;11.974;2023-08-21T06:52:07;15.13;;;7.07;;
16957;SDS011;8595;52.542;11.974;2023-08-21T06:54:34;11.38;;;7.32;;
16957;SDS011;8595;52.542;11.974;2023-08-21T06:57:01;12.55;;;7.82;;
16957;SDS011;8595;52.542;11.974;2023-08-21T06:59:28;11.70;;;6.43;;
16957;SDS011;8595;52.542;11.974;2023-08-21T07:01:54;9.90;;;5.90;;
16957;SDS011;8595;52.542;11.974;2023-08-21T07:04:21;9.70;;;6.22;;
16957;SDS011;8595;52.542;11.974;2023-08-21T07:06:48;9.45;;;6.22;;
16957;SDS011;8595;52.542;11.974;2023-08-21T07:09:16;14.98;;;5.70;;
16957;SDS011;8595;52.542;11.974;2023-08-21T07:11:43;12.10;;;5.68;;
16957;SDS011;8595;52.542;11.974;2023-08-21T07:14:10;10.18;;;6.03;;
16957;SDS011;8595;52.542;11.974;2023-08-21T07:16:38;14.07;;;5.82;;
16957;SDS011;8595;52.542;11.974;2023-08-21T07:19:05;9.57;;;5.82;;
16957;SDS011;8595;52.542;11.974;2023-08-21T07:21:32;10.45;;;5.38;;
16957;SDS011;8595;52.542;11.974;2023-08-21T07:24:01;7.95;;;4.80;;
16957;SDS011;8595;52.542;11.974;2023-08-21T07:26:30;6.55;;;4.40;;
16957;SDS011;8595;52.542;11.974;2023-08-21T07:28:58;8.77;;;5.10;;
16957;SDS011;8595;52.542;11.974;2023-08-21T07:31:24;7.55;;;4.93;;
16957;SDS011;8595;52.542;11.974;2023-08-21T07:33:51;10.35;;;4.38;;
16957;SDS011;8595;52.542;11.974;2023-08-21T07:36:18;8.27;;;4.57;;
16957;SDS011;8595;52.542;11.974;2023-08-21T07:38:45;11.13;;;4.88;;
16957;SDS011;8595;52.542;11.974;2023-08-21T07:41:13;11.07;;;4.82;;
16957;SDS011;8595;52.542;11.974;2023-08-21T07:43:41;6.50;;;3.70;;
16957;SDS011;8595;52.542;11.974;2023-08-21T07:46:10;12.45;;;4.63;;
16957;SDS011;8595;52.542;11.974;2023-08-21T07:48:40;10.13;;;4.50;;
16957;SDS011;8595;52.542;11.974;2023-08-21T07:51:07;12.85;;;3.90;;
16957;SDS011;8595;52.542;11.974;2023-08-21T07:53:34;6.13;;;3.60;;
16957;SDS011;8595;52.542;11.974;2023-08-21T07:56:02;7.07;;;3.88;;
16957;SDS011;8595;52.542;11.974;2023-08-21T07:58:30;6.28;;;3.60;;
16957;SDS011;8595;52.542;11.974;2023-08-21T08:00:59;6.90;;;3.78;;
16957;SDS011;8595;52.542;11.974;2023-08-21T08:03:26;7.32;;;3.60;;
16957;SDS011;8595;52.542;11.974;2023-08-21T08:05:53;6.45;;;3.25;;
16957;SDS011;8595;52.542;11.974;2023-08-21T08:08:19;5.57;;;2.80;;
16957;SDS011;8595;52.542;11.974;2023-08-21T08:10:46;10.10;;;3.55;;
16957;SDS011;8595;52.542;11.974;2023-08-21T08:13:13;6.20;;;2.60;;
16957;SDS011;8595;52.542;11.974;2023-08-21T08:15:40;8.20;;;3.38;;
16957;SDS011;8595;52.542;11.974;2023-08-21T08:18:12;5.68;;;3.15;;
16957;SDS011;8595;52.542;11.974;2023-08-21T08:20:39;8.57;;;3.30;;
16957;SDS011;8595;52.542;11.974;2023-08-21T08:23:06;8.70;;;2.67;;
16957;SDS011;8595;52.542;11.974;2023-08-21T08:25:33;11.60;;;3.67;;
16957;SDS011;8595;52.542;11.974;2023-08-21T08:27:59;7.18;;;2.70;;
16957;SDS011;8595;52.542;11.974;2023-08-21T08:30:26;8.57;;;2.45;;
16957;SDS011;8595;52.542;11.974;2023-08-21T08:32:53;4.45;;;2.10;;
16957;SDS011;8595;52.542;11.974;2023-08-21T08:35:22;7.53;;;1.80;;
16957;SDS011;8595;52.542;11.974;2023-08-21T08:37:48;5.53;;;2.00;;
16957;SDS011;8595;52.542;11.974;2023-08-21T08:40:15;12.75;;;3.00;;
16957;SDS011;8595;52.542;11.974;2023-08-21T08:42:42;5.45;;;1.75;;
16957;SDS011;8595;52.542;11.974;2023-08-21T08:45:09;7.43;;;2.25;;
16957;SDS011;8595;52.542;11.974;2023-08-21T08:47:40;5.28;;;2.30;;
16957;SDS011;8595;52.542;11.974;2023-08-21T08:50:07;5.30;;;2.22;;
16957;SDS011;8595;52.542;11.974;2023-08-21T08:52:36;4.30;;;1.52;;
16957;SDS011;8595;52.542;11.974;2023-08-21T08:55:05;4.93;;;1.70;;
16957;SDS011;8595;52.542;11.974;2023-08-21T08:57:32;4.68;;;1.80;;
16957;SDS011;8595;52.542;11.974;2023-08-21T08:59:59;2.80;;;1.45;;
16957;SDS011;8595;52.542;11.974;2023-08-21T09:02:26;5.90;;;1.67;;
16957;SDS011;8595;52.542;11.974;2023-08-21T09:04:53;4.05;;;1.35;;
16957;SDS011;8595;52.542;11.974;2023-08-21T09:07:20;4.93;;;1.65;;
16957;SDS011;8595;52.542;11.974;2023-08-21T09:09:49;5.47;;;1.63;;
16957;SDS011;8595;52.542;11.974;2023-08-21T09:12:18;2.83;;;1.30;;
16957;SDS011;8595;52.542;11.974;2023-08-21T09:14:45;3.17;;;1.65;;
16957;SDS011;8595;52.542;11.974;2023-08-21T09:17:12;3.65;;;1.77;;
16957;SDS011;8595;52.542;11.974;2023-08-21T09:19:39;6.32;;;1.70;;
16957;SDS011;8595;52.542;11.974;2023-08-21T09:22:10;4.55;;;1.70;;
16957;SDS011;8595;52.542;11.974;2023-08-21T09:24:38;4.13;;;1.95;;
16957;SDS011;8595;52.542;11.974;2023-08-21T09:27:13;5.65;;;1.80;;
16957;SDS011;8595;52.542;11.974;2023-08-21T09:29:41;4.13;;;1.80;;
16957;SDS011;8595;52.542;11.974;2023-08-21T09:32:09;4.30;;;1.90;;
16957;SDS011;8595;52.542;11.974;2023-08-21T09:34:36;5.45;;;1.92;;
16957;SDS011;8595;52.542;11.974;2023-08-21T09:37:04;8.88;;;2.08;;
16957;SDS011;8595;52.542;11.974;2023-08-21T09:39:33;5.60;;;1.95;;
16957;SDS011;8595;52.542;11.974;2023-08-21T09:42:01;4.05;;;1.80;;
16957;SDS011;8595;52.542;11.974;2023-08-21T09:44:35;7.95;;;2.13;;
16957;SDS011;8595;52.542;11.974;2023-08-21T09:47:04;6.03;;;1.90;;
16957;SDS011;8595;52.542;11.974;2023-08-21T09:49:34;6.03;;;2.15;;
16957;SDS011;8595;52.542;11.974;2023-08-21T09:52:02;7.97;;;1.90;;
16957;SDS011;8595;52.542;11.974;2023-08-21T09:54:30;4.30;;;1.73;;
16957;SDS011;8595;52.542;11.974;2023-08-21T09:57:00;4.10;;;1.70;;
16957;SDS011;8595;52.542;11.974;2023-08-21T09:59:28;5.68;;;1.90;;
16957;SDS011;8595;52.542;11.974;2023-08-21T10:01:57;3.78;;;1.88;;
16957;SDS011;8595;52.542;11.974;2023-08-21T10:04:26;4.10;;;1.77;;
16957;SDS011;8595;52.542;11.974;2023-08-21T10:06:54;4.82;;;2.00;;
16957;SDS011;8595;52.542;11.974;2023-08-21T10:09:23;4.82;;;1.80;;
16957;SDS011;8595;52.542;11.974;2023-08-21T10:11:51;10.90;;;2.40;;
16957;SDS011;8595;52.542;11.974;2023-08-21T10:14:18;4.38;;;1.88;;
16957;SDS011;8595;52.542;11.974;2023-08-21T10:16:47;7.15;;;1.90;;
16957;SDS011;8595;52.542;11.974;2023-08-21T10:19:15;24.13;;;3.92;;
16957;SDS011;8595;52.542;11.974;2023-08-21T10:21:45;5.57;;;1.77;;
16957;SDS011;8595;52.542;11.974;2023-08-21T10:24:25;4.35;;;1.80;;
16957;SDS011;8595;52.542;11.974;2023-08-21T10:26:53;7.78;;;2.25;;
16957;SDS011;8595;52.542;11.974;2023-08-21T10:29:20;5.13;;;1.83;;
16957;SDS011;8595;52.542;11.974;2023-08-21T10:31:47;5.78;;;1.85;;
16957;SDS011;8595;52.542;11.974;2023-08-21T10:34:32;9.40;;;2.30;;
16957;SDS011;8595;52.542;11.974;2023-08-21T10:39:37;4.65;;;1.60;;
16957;SDS011;8595;52.542;11.974;2023-08-21T10:42:05;7.47;;;1.60;;
16957;SDS011;8595;52.542;11.974;2023-08-21T10:44:34;6.13;;;1.80;;
16957;SDS011;8595;52.542;11.974;2023-08-21T10:47:17;5.15;;;1.60;;
16957;SDS011;8595;52.542;11.974;2023-08-21T10:49:47;5.72;;;2.10;;
16957;SDS011;8595;52.542;11.974;2023-08-21T10:52:17;4.22;;;2.00;;
16957;SDS011;8595;52.542;11.974;2023-08-21T10:54:48;7.60;;;1.48;;
16957;SDS011;8595;52.542;11.974;2023-08-21T10:57:16;7.53;;;2.13;;
16957;SDS011;8595;52.542;11.974;2023-08-21T10:59:51;5.57;;;1.85;;
16957;SDS011;8595;52.542;11.974;2023-08-21T11:02:22;4.78;;;2.35;;
16957;SDS011;8595;52.542;11.974;2023-08-21T11:04:51;4.30;;;1.70;;
16957;SDS011;8595;52.542;11.974;2023-08-21T11:07:20;4.72;;;1.98;;
16957;SDS011;8595;52.542;11.974;2023-08-21T11:09:47;5.65;;;2.00;;
16957;SDS011;8595;52.542;11.974;2023-08-21T11:12:15;3.80;;;1.38;;
16957;SDS011;8595;52.542;11.974;2023-08-21T11:14:43;7.00;;;2.00;;
16957;SDS011;8595;52.542;11.974;2023-08-21T11:17:11;6.70;;;1.83;;
16957;SDS011;8595;52.542;11.974;2023-08-21T11:19:38;4.05;;;1.90;;
16957;SDS011;8595;52.542;11.974;2023-08-21T11:22:08;5.18;;;2.05;;
16957;SDS011;8595;52.542;11.974;2023-08-21T11:24:39;5.13;;;1.88;;
16957;SDS011;8595;52.542;11.974;2023-08-21T11:27:07;4.93;;;1.70;;
16957;SDS011;8595;52.542;11.974;2023-08-21T11:29:38;4.85;;;1.52;;
16957;SDS011;8595;52.542;11.974;2023-08-21T11:32:09;3.83;;;1.70;;
16957;SDS011;8595;52.542;11.974;2023-08-21T11:34:38;3.65;;;1.90;;
16957;SDS011;8595;52.542;11.974;2023-08-21T11:37:05;4.70;;;1.80;;
16957;SDS011;8595;52.542;11.974;2023-08-21T11:39:40;3.60;;;1.60;;
16957;SDS011;8595;52.542;11.974;2023-08-21T11:42:08;5.65;;;1.63;;
16957;SDS011;8595;52.542;11.974;2023-08-21T11:44:41;4.47;;;1.80;;
16957;SDS011;8595;52.542;11.974;2023-08-21T11:47:10;16.40;;;1.95;;
16957;SDS011;8595;52.542;11.974;2023-08-21T11:49:38;7.53;;;2.30;;
16957;SDS011;8595;52.542;11.974;2023-08-21T11:52:07;5.25;;;1.90;;
16957;SDS011;8595;52.542;11.974;2023-08-21T11:54:34;4.00;;;1.55;;
16957;SDS011;8595;52.542;11.974;2023-08-21T11:57:06;4.30;;;1.75;;
16957;SDS011;8595;52.542;11.974;2023-08-21T11:59:34;4.45;;;1.63;;
16957;SDS011;8595;52.542;11.974;2023-08-21T12:02:08;4.43;;;1.45;;
16957;SDS011;8595;52.542;11.974;2023-08-21T12:04:36;4.90;;;1.50;;
16957;SDS011;8595;52.542;11.974;2023-08-21T12:07:03;3.65;;;1.40;;
16957;SDS011;8595;52.542;11.974;2023-08-21T12:09:30;4.75;;;1.88;;
16957;SDS011;8595;52.542;11.974;2023-08-21T12:11:57;5.03;;;1.60;;
16957;SDS011;8595;52.542;11.974;2023-08-21T12:14:26;6.68;;;1.48;;
16957;SDS011;8595;52.542;11.974;2023-08-21T12:16:54;10.75;;;2.20;;
16957;SDS011;8595;52.542;11.974;2023-08-21T12:19:22;6.88;;;1.67;;
16957;SDS011;8595;52.542;11.974;2023-08-21T12:21:49;6.90;;;1.50;;
16957;SDS011;8595;52.542;11.974;2023-08-21T12:24:16;7.60;;;1.50;;
16957;SDS011;8595;52.542;11.974;2023-08-21T12:26:43;4.15;;;1.20;;
16957;SDS011;8595;52.542;11.974;2023-08-21T12:29:10;7.85;;;1.52;;
16957;SDS011;8595;52.542;11.974;2023-08-21T12:31:38;3.13;;;1.30;;
16957;SDS011;8595;52.542;11.974;2023-08-21T12:34:05;3.83;;;1.65;;
16957;SDS011;8595;52.542;11.974;2023-08-21T12:36:33;3.40;;;1.35;;
16957;SDS011;8595;52.542;11.974;2023-08-21T12:39:01;4.38;;;1.40;;
16957;SDS011;8595;52.542;11.974;2023-08-21T12:41:29;4.13;;;1.40;;
16957;SDS011;8595;52.542;11.974;2023-08-21T12:43:55;3.50;;;1.25;;
16957;SDS011;8595;52.542;11.974;2023-08-21T12:46:23;3.85;;;1.73;;
16957;SDS011;8595;52.542;11.974;2023-08-21T12:48:52;7.45;;;1.33;;
16957;SDS011;8595;52.542;11.974;2023-08-21T12:51:20;5.13;;;1.52;;
16957;SDS011;8595;52.542;11.974;2023-08-21T12:53:47;2.17;;;1.40;;
16957;SDS011;8595;52.542;11.974;2023-08-21T12:56:13;5.85;;;1.58;;
16957;SDS011;8595;52.542;11.974;2023-08-21T12:58:40;3.75;;;1.27;;
16957;SDS011;8595;52.542;11.974;2023-08-21T13:01:07;6.03;;;1.27;;
16957;SDS011;8595;52.542;11.974;2023-08-21T13:03:34;3.38;;;1.13;;
16957;SDS011;8595;52.542;11.974;2023-08-21T13:06:02;7.25;;;1.60;;
16957;SDS011;8595;52.542;11.974;2023-08-21T13:08:29;4.35;;;1.50;;
16957;SDS011;8595;52.542;11.974;2023-08-21T13:10:56;5.38;;;1.10;;
16957;SDS011;8595;52.542;11.974;2023-08-21T13:13:23;5.80;;;1.00;;
16957;SDS011;8595;52.542;11.974;2023-08-21T13:15:50;3.92;;;1.27;;
16957;SDS011;8595;52.542;11.974;2023-08-21T13:18:18;3.33;;;1.30;;
16957;SDS011;8595;52.542;11.974;2023-08-21T13:20:45;3.90;;;1.27;;
16957;SDS011;8595;52.542;11.974;2023-08-21T13:23:14;3.53;;;1.27;;
16957;SDS011;8595;52.542;11.974;2023-08-21T13:25:40;5.47;;;1.40;;
16957;SDS011;8595;52.542;11.974;2023-08-21T13:28:07;2.53;;;1.00;;
16957;SDS011;8595;52.542;11.974;2023-08-21T13:30:36;2.22;;;0.90;;
16957;SDS011;8595;52.542;11.974;2023-08-21T13:33:02;5.10;;;1.08;;
16957;SDS011;8595;52.542;11.974;2023-08-21T13:35:30;2.30;;;1.08;;
16957;SDS011;8595;52.542;11.974;2023-08-21T13:37:57;1.90;;;1.10;;
16957;SDS011;8595;52.542;11.974;2023-08-21T13:40:25;3.13;;;1.35;;
16957;SDS011;8595;52.542;11.974;2023-08-21T13:42:52;2.70;;;1.20;;
16957;SDS011;8595;52.542;11.974;2023-08-21T13:45:19;2.05;;;1.30;;
16957;SDS011;8595;52.542;11.974;2023-08-21T13:47:47;2.72;;;1.05;;
16957;SDS011;8595;52.542;11.974;2023-08-21T13:50:15;3.88;;;1.42;;
16957;SDS011;8595;52.542;11.974;2023-08-21T13:52:43;4.15;;;1.23;;
16957;SDS011;8595;52.542;11.974;2023-08-21T13:55:10;4.35;;;1.30;;
16957;SDS011;8595;52.542;11.974;2023-08-21T13:57:38;3.13;;;1.00;;
16957;SDS011;8595;52.542;11.974;2023-08-21T14:00:06;3.33;;;1.25;;
16957;SDS011;8595;52.542;11.974;2023-08-21T14:02:37;4.82;;;1.20;;
16957;SDS011;8595;52.542;11.974;2023-08-21T14:05:05;8.98;;;1.50;;
16957;SDS011;8595;52.542;11.974;2023-08-21T14:07:32;2.67;;;1.10;;
16957;SDS011;8595;52.542;11.974;2023-08-21T14:10:00;3.47;;;1.30;;
16957;SDS011;8595;52.542;11.974;2023-08-21T14:12:28;5.13;;;1.65;;
16957;SDS011;8595;52.542;11.974;2023-08-21T14:14:57;3.20;;;1.20;;
16957;SDS011;8595;52.542;11.974;2023-08-21T14:17:24;3.72;;;1.20;;
16957;SDS011;8595;52.542;11.974;2023-08-21T14:19:52;4.07;;;1.42;;
16957;SDS011;8595;52.542;11.974;2023-08-21T14:22:19;2.72;;;1.40;;
16957;SDS011;8595;52.542;11.974;2023-08-21T14:24:46;5.47;;;1.40;;
16957;SDS011;8595;52.542;11.974;2023-08-21T14:27:13;2.75;;;1.20;;
16957;SDS011;8595;52.542;11.974;2023-08-21T14:29:39;3.45;;;1.55;;
16957;SDS011;8595;52.542;11.974;2023-08-21T14:32:09;2.13;;;1.17;;
16957;SDS011;8595;52.542;11.974;2023-08-21T14:34:36;4.18;;;1.27;;
16957;SDS011;8595;52.542;11.974;2023-08-21T14:37:03;3.20;;;1.40;;
16957;SDS011;8595;52.542;11.974;2023-08-21T14:39:30;3.13;;;1.15;;
16957;SDS011;8595;52.542;11.974;2023-08-21T14:41:57;4.93;;;1.38;;
16957;SDS011;8595;52.542;11.974;2023-08-21T14:44:24;2.97;;;1.60;;
16957;SDS011;8595;52.542;11.974;2023-08-21T14:46:52;3.05;;;1.42;;
16957;SDS011;8595;52.542;11.974;2023-08-21T14:49:21;7.47;;;1.70;;